createdAt,value
2016-08-17T00:00:12.483Z,18.67
2016-08-17T00:01:11.657Z,18.62
2016-08-17T00:02:16.815Z,18.58
2016-08-17T00:03:20.011Z,18.60
2016-08-17T00:04:20.190Z,18.51
2016-08-17T00:05:23.563Z,18.54
2016-08-17T00:06:12.333Z,18.51
2016-08-17T00:07:23.275Z,18.60
2016-08-17T00:09:19.900Z,18.60
2016-08-17T00:10:22.801Z,18.54
2016-08-17T00:11:20.539Z,18.55
2016-08-17T00:12:19.719Z,18.56
2016-08-17T00:13:22.947Z,18.49
2016-08-17T00:15:21.925Z,18.56
2016-08-17T00:16:22.493Z,18.54
2016-08-17T00:17:19.610Z,18.54
2016-08-17T00:18:11.581Z,18.51
2016-08-17T00:19:11.940Z,18.54
2016-08-17T00:20:20.199Z,18.51
2016-08-17T00:21:22.611Z,18.54
2016-08-17T00:25:12.168Z,18.48
2016-08-17T00:26:12.392Z,18.47
2016-08-17T00:27:22.748Z,18.45
2016-08-17T00:28:22.617Z,18.39
2016-08-17T00:29:19.765Z,18.34
2016-08-17T00:30:19.959Z,18.46
2016-08-17T00:31:20.170Z,18.42
2016-08-17T00:32:28.461Z,18.46
2016-08-17T00:33:19.717Z,18.51
2016-08-17T00:34:19.823Z,18.54
2016-08-17T00:37:19.777Z,18.51
2016-08-17T00:38:22.983Z,18.48
2016-08-17T00:39:20.165Z,18.55
2016-08-17T00:40:20.393Z,18.53
2016-08-17T00:43:12.099Z,18.32
2016-08-17T00:44:12.112Z,18.32
2016-08-17T00:45:23.064Z,18.31
2016-08-17T00:46:20.261Z,18.26
2016-08-17T00:48:20.115Z,18.21
2016-08-17T00:49:13.351Z,18.19
2016-08-17T00:50:20.015Z,18.19
2016-08-17T00:51:20.221Z,18.11
2016-08-17T00:52:12.280Z,18.12
2016-08-17T00:53:26.000Z,18.09
2016-08-17T00:54:20.165Z,18.06
2016-08-17T00:55:20.342Z,18.01
2016-08-17T00:58:19.872Z,17.98
2016-08-17T00:59:20.082Z,17.98
2016-08-17T01:00:23.340Z,17.92
2016-08-17T01:02:22.394Z,17.90
2016-08-17T01:05:22.799Z,17.90
2016-08-17T01:06:23.025Z,17.88
2016-08-17T01:07:20.111Z,17.92
2016-08-17T01:08:22.580Z,17.94
2016-08-17T01:09:19.717Z,17.86
2016-08-17T01:10:23.047Z,17.82
2016-08-17T01:11:23.352Z,17.80
2016-08-17T01:12:19.642Z,17.85
2016-08-17T01:13:22.876Z,17.83
2016-08-17T01:14:12.513Z,17.84
2016-08-17T01:15:19.693Z,17.83
2016-08-17T01:16:28.964Z,17.86
2016-08-17T01:17:19.959Z,17.80
2016-08-17T01:18:23.274Z,17.74
2016-08-17T01:19:20.396Z,17.75
2016-08-17T01:20:20.592Z,17.60
2016-08-17T01:21:22.018Z,17.68
2016-08-17T01:22:20.168Z,17.77
2016-08-17T01:23:22.698Z,17.82
2016-08-17T01:24:22.997Z,17.75
2016-08-17T01:25:23.499Z,17.69
2016-08-17T01:26:28.174Z,17.64
2016-08-17T01:27:22.033Z,17.58
2016-08-17T01:28:25.937Z,17.58
2016-08-17T01:29:19.835Z,17.67
2016-08-17T01:30:20.008Z,17.83
2016-08-17T01:31:19.294Z,17.87
2016-08-17T01:32:14.471Z,17.82
2016-08-17T01:33:22.708Z,17.80
2016-08-17T01:34:20.414Z,17.73
2016-08-17T01:35:14.593Z,17.68
2016-08-17T01:36:19.435Z,17.68
2016-08-17T01:37:29.055Z,17.69
2016-08-17T01:38:22.069Z,17.69
2016-08-17T01:39:25.382Z,17.73
2016-08-17T01:40:22.871Z,17.69
2016-08-17T01:41:20.044Z,17.67
2016-08-17T01:42:20.241Z,17.74
2016-08-17T01:43:22.102Z,17.71
2016-08-17T01:44:20.273Z,17.78
2016-08-17T01:45:20.093Z,17.74
2016-08-17T01:46:22.783Z,17.80
2016-08-17T01:47:19.871Z,17.85
2016-08-17T01:48:22.602Z,17.85
2016-08-17T01:49:20.231Z,17.84
2016-08-17T01:50:22.729Z,17.92
2016-08-17T01:51:22.319Z,17.89
2016-08-17T01:52:20.491Z,17.85
2016-08-17T01:53:22.674Z,17.87
2016-08-17T01:54:19.801Z,17.86
2016-08-17T01:55:28.543Z,17.87
2016-08-17T01:56:22.683Z,17.79
2016-08-17T01:57:19.787Z,17.83
2016-08-17T01:59:20.118Z,17.92
2016-08-17T02:00:19.886Z,17.85
2016-08-17T02:01:20.005Z,17.90
2016-08-17T02:02:23.384Z,17.79
2016-08-17T02:05:19.812Z,17.84
2016-08-17T02:06:19.097Z,17.85
2016-08-17T02:07:20.295Z,17.83
2016-08-17T02:08:20.451Z,17.88
2016-08-17T02:09:19.766Z,17.86
2016-08-17T02:10:19.885Z,17.80
2016-08-17T02:11:26.154Z,17.83
2016-08-17T02:12:20.298Z,17.69
2016-08-17T02:13:14.383Z,17.68
2016-08-17T02:14:19.639Z,17.67
2016-08-17T02:15:25.877Z,17.67
2016-08-17T02:16:19.634Z,17.71
2016-08-17T02:17:22.854Z,17.73
2016-08-17T02:18:11.939Z,17.65
2016-08-17T02:19:19.765Z,17.76
2016-08-17T02:20:19.925Z,17.70
2016-08-17T02:21:13.081Z,17.76
2016-08-17T02:22:23.671Z,17.71
2016-08-17T02:23:19.839Z,17.77
2016-08-17T02:24:28.107Z,17.71
2016-08-17T02:25:11.895Z,17.68
2016-08-17T02:26:20.064Z,17.67
2016-08-17T02:27:20.270Z,17.70
2016-08-17T02:29:25.682Z,17.70
2016-08-17T02:31:19.887Z,17.64
2016-08-17T02:32:23.157Z,17.62
2016-08-17T02:33:20.285Z,17.65
2016-08-17T02:34:20.491Z,17.81
2016-08-17T02:35:22.787Z,17.75
2016-08-17T02:36:19.932Z,17.71
2016-08-17T02:37:21.176Z,17.68
2016-08-17T02:38:28.466Z,17.69
2016-08-17T02:39:11.810Z,17.65
2016-08-17T02:40:19.974Z,17.66
2016-08-17T02:42:19.800Z,17.68
2016-08-17T02:43:20.025Z,17.69
2016-08-17T02:44:20.219Z,17.58
2016-08-17T02:45:12.575Z,17.63
2016-08-17T02:46:22.843Z,17.57
2016-08-17T02:47:13.592Z,17.52
2016-08-17T02:48:19.833Z,17.51
2016-08-17T02:49:23.161Z,17.48
2016-08-17T02:50:22.482Z,17.47
2016-08-17T02:51:22.866Z,17.49
2016-08-17T02:52:20.050Z,17.48
2016-08-17T02:54:22.700Z,17.52
2016-08-17T02:55:19.830Z,17.36
2016-08-17T02:56:28.251Z,17.30
2016-08-17T02:57:12.554Z,17.17
2016-08-17T02:58:20.512Z,17.10
2016-08-17T02:59:16.212Z,17.14
2016-08-17T03:00:20.367Z,17.21
2016-08-17T03:01:12.892Z,17.23
2016-08-17T03:02:13.072Z,17.10
2016-08-17T03:03:23.318Z,17.04
2016-08-17T03:04:22.831Z,16.98
2016-08-17T03:05:29.023Z,16.97
2016-08-17T03:06:25.717Z,17.01
2016-08-17T03:07:13.263Z,16.96
2016-08-17T03:08:23.501Z,17.01
2016-08-17T03:09:18.794Z,16.98
2016-08-17T03:10:12.770Z,16.95
2016-08-17T03:11:23.026Z,16.85
2016-08-17T03:12:26.180Z,16.82
2016-08-17T03:13:23.537Z,16.79
2016-08-17T03:15:22.542Z,16.71
2016-08-17T03:16:24.862Z,16.69
2016-08-17T03:20:29.756Z,16.70
2016-08-17T03:21:22.159Z,16.74
2016-08-17T03:22:26.301Z,16.75
2016-08-17T03:23:20.467Z,16.81
2016-08-17T03:24:25.126Z,16.69
2016-08-17T03:25:19.901Z,16.60
2016-08-17T03:26:23.239Z,16.56
2016-08-17T03:27:20.402Z,16.56
2016-08-17T03:28:22.451Z,16.59
2016-08-17T03:29:22.708Z,16.53
2016-08-17T03:30:12.417Z,16.53
2016-08-17T03:31:25.995Z,16.49
2016-08-17T03:32:20.170Z,16.55
2016-08-17T03:33:16.923Z,16.70
2016-08-17T03:34:29.091Z,16.82
2016-08-17T03:35:20.235Z,16.88
2016-08-17T03:36:20.381Z,16.88
2016-08-17T03:37:22.930Z,16.86
2016-08-17T03:38:23.223Z,16.78
2016-08-17T03:39:21.862Z,16.83
2016-08-17T03:40:11.313Z,16.75
2016-08-17T03:41:22.303Z,16.68
2016-08-17T03:42:20.512Z,16.64
2016-08-17T03:43:19.204Z,16.66
2016-08-17T03:44:22.551Z,16.66
2016-08-17T03:45:19.710Z,16.67
2016-08-17T03:46:19.947Z,16.60
2016-08-17T03:47:22.549Z,16.57
2016-08-17T03:48:11.968Z,16.55
2016-08-17T03:49:23.238Z,16.63
2016-08-17T03:50:20.387Z,16.50
2016-08-17T03:51:26.612Z,16.58
2016-08-17T03:52:19.769Z,16.65
2016-08-17T03:53:22.930Z,16.60
2016-08-17T03:54:23.574Z,16.57
2016-08-17T03:55:22.712Z,16.56
2016-08-17T03:56:19.856Z,16.58
2016-08-17T03:57:25.615Z,16.57
2016-08-17T03:58:22.179Z,16.59
2016-08-17T03:59:15.260Z,16.63
2016-08-17T04:00:20.459Z,16.59
2016-08-17T04:01:19.677Z,16.58
2016-08-17T04:02:19.882Z,16.55
2016-08-17T04:03:23.187Z,16.57
2016-08-17T04:04:20.381Z,16.68
2016-08-17T04:05:20.582Z,16.73
2016-08-17T04:06:19.767Z,16.66
2016-08-17T04:07:19.990Z,16.63
2016-08-17T04:08:11.926Z,16.57
2016-08-17T04:09:23.093Z,16.55
2016-08-17T04:11:19.917Z,16.65
2016-08-17T04:13:19.839Z,16.72
2016-08-17T04:14:22.890Z,16.81
2016-08-17T04:17:21.327Z,16.90
2016-08-17T04:18:20.474Z,16.90
2016-08-17T04:19:22.801Z,16.85
2016-08-17T04:20:12.509Z,16.83
2016-08-17T04:21:19.712Z,16.80
2016-08-17T04:22:19.903Z,16.82
2016-08-17T04:25:23.384Z,16.89
2016-08-17T04:26:19.867Z,16.87
2016-08-17T04:28:25.783Z,16.84
2016-08-17T04:29:29.002Z,16.77
2016-08-17T04:30:25.805Z,16.64
2016-08-17T04:31:12.413Z,16.64
2016-08-17T04:32:23.608Z,16.66
2016-08-17T04:33:12.773Z,16.80
2016-08-17T04:37:19.815Z,16.70
2016-08-17T04:38:23.008Z,16.74
2016-08-17T04:39:22.625Z,16.79
2016-08-17T04:40:25.792Z,16.89
2016-08-17T04:41:26.546Z,16.97
2016-08-17T04:42:22.998Z,16.87
2016-08-17T04:43:20.147Z,16.81
2016-08-17T04:44:22.559Z,16.87
2016-08-17T04:47:19.964Z,16.75
2016-08-17T04:51:20.120Z,16.79
2016-08-17T04:53:19.994Z,16.73
2016-08-17T04:54:20.143Z,16.77
2016-08-17T04:55:20.315Z,16.75
2016-08-17T04:57:20.155Z,16.73
2016-08-17T04:58:20.484Z,16.72
2016-08-17T04:59:19.805Z,16.70
2016-08-17T05:01:22.736Z,16.83
2016-08-17T05:02:20.393Z,16.79
2016-08-17T05:04:12.582Z,16.83
2016-08-17T05:05:28.892Z,16.84
2016-08-17T05:06:20.491Z,16.93
2016-08-17T05:07:19.740Z,16.85
2016-08-17T05:08:24.919Z,16.88
2016-08-17T05:09:23.037Z,16.94
2016-08-17T05:10:22.724Z,17.01
2016-08-17T05:11:12.588Z,16.93
2016-08-17T05:12:25.795Z,16.88
2016-08-17T05:14:20.187Z,16.82
2016-08-17T05:15:28.630Z,16.76
2016-08-17T05:17:19.938Z,16.85
2016-08-17T05:18:13.075Z,16.86
2016-08-17T05:21:26.112Z,16.78
2016-08-17T05:22:24.852Z,16.85
2016-08-17T05:23:11.946Z,16.84
2016-08-17T05:24:23.168Z,16.79
2016-08-17T05:26:26.007Z,16.90
2016-08-17T05:28:20.821Z,16.82
2016-08-17T05:30:20.623Z,17.00
2016-08-17T05:31:22.101Z,16.95
2016-08-17T05:32:19.938Z,17.00
2016-08-17T05:33:20.113Z,17.03
2016-08-17T05:34:19.950Z,17.06
2016-08-17T05:35:23.084Z,17.17
2016-08-17T05:36:13.702Z,17.32
2016-08-17T05:37:22.341Z,17.35
2016-08-17T05:38:20.487Z,17.30
2016-08-17T05:40:23.398Z,17.17
2016-08-17T05:41:19.691Z,17.20
2016-08-17T05:42:19.905Z,17.24
2016-08-17T05:43:19.746Z,17.18
2016-08-17T05:44:22.939Z,17.24
2016-08-17T05:45:20.124Z,17.29
2016-08-17T05:46:19.704Z,17.48
2016-08-17T05:47:21.976Z,17.53
2016-08-17T05:48:20.203Z,17.73
2016-08-17T05:49:20.328Z,17.84
2016-08-17T05:50:29.073Z,17.84
2016-08-17T05:51:28.418Z,17.90
2016-08-17T05:52:20.628Z,17.94
2016-08-17T05:53:28.494Z,18.00
2016-08-17T05:54:25.731Z,18.04
2016-08-17T05:55:19.942Z,17.95
2016-08-17T05:56:21.148Z,17.84
2016-08-17T05:57:19.977Z,17.92
2016-08-17T05:58:22.416Z,17.98
2016-08-17T05:59:20.548Z,18.06
2016-08-17T06:00:20.390Z,18.08
2016-08-17T06:01:22.654Z,18.11
2016-08-17T06:02:25.027Z,17.83
2016-08-17T06:03:25.147Z,17.68
2016-08-17T06:04:20.263Z,17.73
2016-08-17T06:05:19.628Z,17.76
2016-08-17T06:06:20.198Z,17.77
2016-08-17T06:07:20.337Z,17.58
2016-08-17T06:09:23.115Z,17.77
2016-08-17T06:10:22.766Z,17.97
2016-08-17T06:11:23.443Z,18.02
2016-08-17T06:12:19.323Z,18.13
2016-08-17T06:13:20.475Z,18.04
2016-08-17T06:14:20.226Z,18.15
2016-08-17T06:15:22.752Z,18.17
2016-08-17T06:16:19.861Z,18.17
2016-08-17T06:17:23.033Z,18.05
2016-08-17T06:18:28.502Z,18.09
2016-08-17T06:19:19.699Z,18.09
2016-08-17T06:20:25.893Z,18.17
2016-08-17T06:21:22.843Z,18.07
2016-08-17T06:22:22.962Z,18.09
2016-08-17T06:23:28.508Z,18.18
2016-08-17T06:25:22.764Z,18.14
2016-08-17T06:26:19.936Z,18.20
2016-08-17T06:27:28.394Z,18.30
2016-08-17T06:28:12.883Z,18.14
2016-08-17T06:30:19.768Z,18.17
2016-08-17T06:31:19.928Z,18.27
2016-08-17T06:32:19.628Z,18.16
2016-08-17T06:33:13.206Z,17.97
2016-08-17T06:34:22.656Z,17.86
2016-08-17T06:35:22.820Z,17.89
2016-08-17T06:36:20.042Z,17.83
2016-08-17T06:37:23.188Z,17.76
2016-08-17T06:38:20.368Z,17.80
2016-08-17T06:39:12.717Z,17.87
2016-08-17T06:40:23.139Z,17.81
2016-08-17T06:41:21.841Z,17.79
2016-08-17T06:42:22.992Z,17.76
2016-08-17T06:43:22.487Z,17.75
2016-08-17T06:44:21.882Z,17.70
2016-08-17T06:45:22.258Z,17.80
2016-08-17T06:46:12.404Z,17.79
2016-08-17T06:47:20.397Z,17.79
2016-08-17T06:48:13.555Z,17.88
2016-08-17T06:49:12.286Z,17.76
2016-08-17T06:50:12.568Z,17.84
2016-08-17T06:51:19.745Z,17.70
2016-08-17T06:52:12.579Z,17.60
2016-08-17T06:53:23.512Z,17.67
2016-08-17T06:54:19.109Z,17.72
2016-08-17T06:55:16.869Z,17.69
2016-08-17T06:56:12.603Z,17.80
2016-08-17T06:57:22.178Z,17.71
2016-08-17T06:58:22.943Z,17.83
2016-08-17T07:00:20.573Z,17.73
2016-08-17T07:01:19.432Z,17.68
2016-08-17T07:02:23.709Z,17.70
2016-08-17T07:05:20.203Z,17.92
2016-08-17T07:06:23.450Z,18.00
2016-08-17T07:07:24.957Z,17.92
2016-08-17T07:08:12.064Z,17.93
2016-08-17T07:09:23.156Z,17.90
2016-08-17T07:10:23.367Z,17.95
2016-08-17T07:11:23.499Z,17.91
2016-08-17T07:12:24.994Z,17.95
2016-08-17T07:13:22.774Z,17.95
2016-08-17T07:14:26.055Z,18.06
2016-08-17T07:15:20.239Z,18.04
2016-08-17T07:16:20.386Z,18.10
2016-08-17T07:17:25.704Z,18.06
2016-08-17T07:18:13.354Z,17.99
2016-08-17T07:19:19.757Z,18.16
2016-08-17T07:20:23.032Z,18.13
2016-08-17T07:22:22.517Z,18.09
2016-08-17T07:23:11.961Z,18.07
2016-08-17T07:24:19.516Z,18.07
2016-08-17T07:25:28.268Z,18.23
2016-08-17T07:27:27.403Z,18.20
2016-08-17T07:28:20.585Z,18.33
2016-08-17T07:29:22.807Z,18.24
2016-08-17T07:30:26.378Z,18.36
2016-08-17T07:31:26.453Z,18.36
2016-08-17T07:32:12.655Z,18.42
2016-08-17T07:38:17.333Z,18.47
2016-08-17T07:39:28.594Z,18.50
2016-08-17T07:40:20.596Z,18.52
2016-08-17T07:42:23.550Z,18.54
2016-08-17T07:44:20.329Z,18.69
2016-08-17T07:45:22.890Z,18.66
2016-08-17T07:46:20.044Z,18.69
2016-08-17T07:47:26.280Z,18.65
2016-08-17T07:48:24.845Z,18.59
2016-08-17T07:49:13.014Z,18.57
2016-08-17T07:51:46.069Z,18.69
2016-08-17T07:52:25.355Z,18.62
2016-08-17T07:53:13.581Z,18.69
2016-08-17T07:54:19.871Z,18.64
2016-08-17T07:55:26.096Z,18.68
2016-08-17T07:57:23.378Z,18.75
2016-08-17T07:59:28.585Z,18.88
2016-08-17T08:00:25.844Z,18.82
2016-08-17T08:02:19.953Z,18.93
2016-08-17T08:03:23.137Z,18.86
2016-08-17T08:04:23.228Z,18.88
2016-08-17T08:05:26.423Z,18.79
2016-08-17T08:06:29.857Z,18.74
2016-08-17T08:07:20.590Z,18.75
2016-08-17T08:08:19.852Z,18.64
2016-08-17T08:09:19.958Z,18.71
2016-08-17T08:10:28.642Z,18.62
2016-08-17T08:11:19.892Z,18.66
2016-08-17T08:12:23.065Z,18.71
2016-08-17T08:13:20.206Z,18.79
2016-08-17T08:14:20.384Z,18.76
2016-08-17T08:15:24.754Z,18.78
2016-08-17T08:16:22.192Z,18.62
2016-08-17T08:17:19.426Z,18.55
2016-08-17T08:18:26.568Z,18.56
2016-08-17T08:20:21.928Z,18.67
2016-08-17T08:21:22.906Z,18.71
2016-08-17T08:22:22.216Z,18.83
2016-08-17T08:23:22.753Z,18.87
2016-08-17T08:24:12.099Z,18.86
2016-08-17T08:26:22.942Z,18.86
2016-08-17T08:27:22.283Z,18.84
2016-08-17T08:28:26.074Z,18.88
2016-08-17T08:29:23.296Z,18.90
2016-08-17T08:32:27.886Z,19.16
2016-08-17T08:34:23.263Z,19.17
2016-08-17T08:35:19.959Z,19.19
2016-08-17T08:36:20.212Z,19.16
2016-08-17T08:37:23.352Z,19.16
2016-08-17T08:38:18.979Z,19.19
2016-08-17T08:39:28.385Z,19.16
2016-08-17T08:40:22.730Z,19.10
2016-08-17T08:41:19.951Z,19.11
2016-08-17T08:42:26.140Z,19.15
2016-08-17T08:43:13.412Z,19.22
2016-08-17T08:44:23.624Z,19.19
2016-08-17T08:45:28.342Z,19.15
2016-08-17T08:46:22.207Z,19.27
2016-08-17T08:47:12.855Z,19.32
2016-08-17T08:48:20.103Z,19.37
2016-08-17T08:49:20.235Z,19.51
2016-08-17T08:50:20.388Z,19.63
2016-08-17T08:51:22.750Z,19.56
2016-08-17T08:52:26.576Z,19.65
2016-08-17T08:53:19.803Z,19.69
2016-08-17T08:54:22.988Z,19.63
2016-08-17T08:56:22.332Z,19.65
2016-08-17T08:57:19.994Z,19.63
2016-08-17T08:58:13.171Z,19.64
2016-08-17T08:59:20.368Z,19.61
2016-08-17T09:00:23.651Z,19.62
2016-08-17T09:01:46.288Z,19.64
2016-08-17T09:02:20.366Z,19.62
2016-08-17T09:03:23.661Z,19.54
2016-08-17T09:04:25.279Z,19.50
2016-08-17T09:05:28.678Z,19.52
2016-08-17T09:06:22.918Z,19.58
2016-08-17T09:07:23.074Z,19.50
2016-08-17T09:09:22.775Z,19.58
2016-08-17T09:10:20.044Z,19.62
2016-08-17T09:11:20.269Z,19.63
2016-08-17T09:12:22.677Z,19.64
2016-08-17T09:13:22.291Z,19.66
2016-08-17T09:14:28.950Z,19.63
2016-08-17T09:15:23.674Z,19.59
2016-08-17T09:16:20.488Z,19.64
2016-08-17T09:17:20.753Z,19.70
2016-08-17T09:18:25.038Z,19.76
2016-08-17T09:19:17.375Z,19.85
2016-08-17T09:20:23.043Z,19.94
2016-08-17T09:21:18.643Z,20.00
2016-08-17T09:22:16.723Z,20.05
2016-08-17T09:23:22.977Z,19.98
2016-08-17T09:24:19.698Z,20.00
2016-08-17T09:25:16.785Z,19.97
2016-08-17T09:26:26.066Z,19.99
2016-08-17T09:28:16.777Z,20.14
2016-08-17T09:29:19.597Z,20.14
2016-08-17T09:30:22.709Z,20.20
2016-08-17T09:31:22.200Z,20.23
2016-08-17T09:32:17.410Z,20.24
2016-08-17T09:33:19.837Z,20.31
2016-08-17T09:34:20.095Z,20.34
2016-08-17T09:35:23.261Z,20.40
2016-08-17T09:36:19.988Z,20.49
2016-08-17T09:37:20.234Z,20.45
2016-08-17T09:38:20.425Z,20.40
2016-08-17T09:39:23.630Z,20.30
2016-08-17T09:40:21.934Z,20.32
2016-08-17T09:41:23.069Z,20.38
2016-08-17T09:42:20.311Z,20.42
2016-08-17T09:43:20.144Z,20.43
2016-08-17T09:44:28.806Z,20.41
2016-08-17T09:45:23.072Z,20.45
2016-08-17T09:46:23.246Z,20.46
2016-08-17T09:47:23.414Z,20.54
2016-08-17T09:48:20.576Z,20.56
2016-08-17T09:49:22.725Z,20.55
2016-08-17T09:50:22.240Z,20.42
2016-08-17T09:51:19.949Z,20.35
2016-08-17T09:52:22.648Z,20.28
2016-08-17T09:53:22.710Z,20.30
2016-08-17T09:54:22.943Z,20.30
2016-08-17T09:55:22.740Z,20.36
2016-08-17T09:56:20.034Z,20.40
2016-08-17T09:57:22.423Z,20.47
2016-08-17T09:58:19.722Z,20.53
2016-08-17T09:59:22.826Z,20.50
2016-08-17T10:00:20.065Z,20.51
2016-08-17T10:01:22.365Z,20.56
2016-08-17T10:02:25.797Z,20.53
2016-08-17T10:03:22.604Z,20.51
2016-08-17T10:04:19.847Z,20.43
2016-08-17T10:05:23.076Z,20.46
2016-08-17T10:06:22.457Z,20.47
2016-08-17T10:07:28.955Z,20.49
2016-08-17T10:08:20.601Z,20.50
2016-08-17T10:09:22.784Z,20.54
2016-08-17T10:10:26.051Z,20.56
2016-08-17T10:11:22.806Z,20.58
2016-08-17T10:12:20.457Z,20.53
2016-08-17T10:13:27.920Z,20.57
2016-08-17T10:14:20.139Z,20.66
2016-08-17T10:15:23.481Z,20.77
2016-08-17T10:16:24.310Z,20.81
2016-08-17T10:17:20.477Z,20.79
2016-08-17T10:18:22.022Z,20.80
2016-08-17T10:19:20.242Z,20.64
2016-08-17T10:20:13.651Z,20.68
2016-08-17T10:21:20.002Z,20.70
2016-08-17T10:22:26.163Z,20.72
2016-08-17T10:24:20.475Z,20.69
2016-08-17T10:26:20.334Z,20.75
2016-08-17T10:28:20.119Z,20.75
2016-08-17T10:29:20.130Z,20.80
2016-08-17T10:30:23.296Z,20.85
2016-08-17T10:31:23.199Z,20.91
2016-08-17T10:32:19.942Z,20.93
2016-08-17T10:33:19.140Z,20.95
2016-08-17T10:35:19.964Z,20.91
2016-08-17T10:37:25.302Z,20.82
2016-08-17T10:38:20.458Z,20.83
2016-08-17T10:39:28.498Z,20.92
2016-08-17T10:40:19.662Z,20.95
2016-08-17T10:41:19.907Z,20.93
2016-08-17T10:42:20.137Z,20.91
2016-08-17T10:43:19.791Z,20.94
2016-08-17T10:44:29.011Z,20.95
2016-08-17T10:45:24.776Z,20.95
2016-08-17T10:46:26.166Z,20.89
2016-08-17T10:47:20.539Z,20.93
2016-08-17T10:48:25.895Z,20.85
2016-08-17T10:49:28.460Z,20.82
2016-08-17T10:50:20.572Z,20.94
2016-08-17T10:51:12.165Z,21.05
2016-08-17T10:52:28.479Z,21.08
2016-08-17T10:53:20.158Z,21.18
2016-08-17T10:54:25.835Z,21.14
2016-08-17T10:55:13.015Z,21.02
2016-08-17T10:59:12.096Z,21.27
2016-08-17T11:00:20.096Z,21.39
2016-08-17T11:01:23.209Z,21.44
2016-08-17T11:02:19.970Z,21.47
2016-08-17T11:03:19.687Z,21.48
2016-08-17T11:04:19.896Z,21.53
2016-08-17T11:05:22.546Z,21.55
2016-08-17T11:06:22.233Z,21.57
2016-08-17T11:07:20.379Z,21.59
2016-08-17T11:08:20.559Z,21.53
2016-08-17T11:09:24.909Z,21.48
2016-08-17T11:10:20.213Z,21.57
2016-08-17T11:11:23.378Z,21.56
2016-08-17T11:12:20.235Z,21.59
2016-08-17T11:13:13.404Z,21.58
2016-08-17T11:14:23.047Z,21.63
2016-08-17T11:16:28.070Z,21.68
2016-08-17T11:17:26.270Z,21.70
2016-08-17T11:20:12.746Z,21.81
2016-08-17T11:21:20.044Z,21.85
2016-08-17T11:22:20.277Z,21.95
2016-08-17T11:23:20.513Z,21.98
2016-08-17T11:24:22.626Z,21.98
2016-08-17T11:25:22.911Z,21.97
2016-08-17T11:26:24.897Z,22.00
2016-08-17T11:27:23.558Z,22.01
2016-08-17T11:28:22.638Z,21.99
2016-08-17T11:29:12.765Z,22.00
2016-08-17T11:30:11.994Z,21.94
2016-08-17T11:31:18.964Z,21.96
2016-08-17T11:32:19.536Z,22.03
2016-08-17T11:33:28.001Z,22.07
2016-08-17T11:34:11.461Z,22.11
2016-08-17T11:35:19.891Z,22.11
2016-08-17T11:36:20.047Z,22.15
2016-08-17T11:37:20.334Z,22.18
2016-08-17T11:38:23.635Z,22.14
2016-08-17T11:39:22.715Z,22.12
2016-08-17T11:40:28.478Z,22.21
2016-08-17T11:41:21.894Z,22.20
2016-08-17T11:42:25.176Z,22.20
2016-08-17T11:43:20.317Z,22.25
2016-08-17T11:44:22.899Z,22.20
2016-08-17T11:45:25.578Z,22.15
2016-08-17T11:46:23.254Z,22.06
2016-08-17T11:47:19.890Z,22.00
2016-08-17T11:48:22.514Z,22.04
2016-08-17T11:49:24.789Z,22.09
2016-08-17T11:50:22.202Z,22.22
2016-08-17T11:51:23.509Z,22.23
2016-08-17T11:52:22.646Z,22.09
2016-08-17T11:53:22.902Z,21.95
2016-08-17T11:54:20.119Z,21.93
2016-08-17T11:55:20.319Z,22.00
2016-08-17T11:56:22.824Z,22.06
2016-08-17T11:57:20.070Z,22.12
2016-08-17T11:58:19.643Z,22.06
2016-08-17T11:59:22.764Z,22.01
2016-08-17T12:00:22.846Z,21.88
2016-08-17T12:01:22.438Z,21.82
2016-08-17T12:02:23.723Z,21.91
2016-08-17T12:03:20.961Z,22.02
2016-08-17T12:04:19.306Z,22.12
2016-08-17T12:05:28.850Z,22.26
2016-08-17T12:06:25.120Z,22.21
2016-08-17T12:07:23.347Z,22.28
2016-08-17T12:08:20.530Z,22.33
2016-08-17T12:09:11.574Z,22.44
2016-08-17T12:10:27.987Z,22.49
2016-08-17T12:12:25.337Z,22.66
2016-08-17T12:13:22.719Z,22.65
2016-08-17T12:15:24.830Z,22.47
2016-08-17T12:16:22.620Z,22.36
2016-08-17T12:17:11.828Z,22.38
2016-08-17T12:18:14.405Z,22.32
2016-08-17T12:19:20.510Z,22.52
2016-08-17T12:20:18.916Z,22.60
2016-08-17T12:22:22.334Z,22.80
2016-08-17T12:23:12.836Z,22.78
2016-08-17T12:24:13.060Z,22.77
2016-08-17T12:25:13.361Z,22.66
2016-08-17T12:26:20.559Z,22.54
2016-08-17T12:29:26.144Z,22.33
2016-08-17T12:30:12.690Z,22.27
2016-08-17T12:32:22.860Z,22.17
2016-08-17T12:33:20.096Z,22.22
2016-08-17T12:34:20.292Z,22.29
2016-08-17T12:35:23.304Z,22.32
2016-08-17T12:36:20.432Z,22.26
2016-08-17T12:37:16.597Z,22.14
2016-08-17T12:38:18.878Z,22.26
2016-08-17T12:39:20.096Z,22.31
2016-08-17T12:40:20.233Z,22.53
2016-08-17T12:41:17.472Z,22.69
2016-08-17T12:42:11.975Z,22.81
2016-08-17T12:43:22.391Z,22.92
2016-08-17T12:44:25.645Z,23.05
2016-08-17T12:45:27.346Z,23.26
2016-08-17T12:46:26.141Z,23.34
2016-08-17T12:48:26.017Z,23.29
2016-08-17T12:49:12.317Z,23.38
2016-08-17T12:50:20.429Z,23.31
2016-08-17T12:51:20.592Z,23.48
2016-08-17T12:52:20.399Z,23.54
2016-08-17T12:53:21.567Z,23.42
2016-08-17T12:54:27.975Z,23.32
2016-08-17T12:55:23.071Z,23.33
2016-08-17T12:56:17.895Z,23.31
2016-08-17T12:57:28.728Z,23.23
2016-08-17T12:58:25.004Z,23.35
2016-08-17T12:59:12.724Z,23.34
2016-08-17T13:00:22.790Z,23.06
2016-08-17T13:02:12.212Z,23.17
2016-08-17T13:04:25.487Z,23.55
2016-08-17T13:07:12.546Z,23.82
2016-08-17T13:08:20.216Z,23.96
2016-08-17T13:09:12.046Z,24.13
2016-08-17T13:10:11.273Z,24.17
2016-08-17T13:12:13.495Z,24.14
2016-08-17T13:13:23.262Z,24.19
2016-08-17T13:14:20.458Z,24.10
2016-08-17T13:15:27.890Z,23.75
2016-08-17T13:16:17.030Z,23.54
2016-08-17T13:18:20.188Z,23.12
2016-08-17T13:19:19.878Z,23.19
2016-08-17T13:21:12.674Z,23.55
2016-08-17T13:22:20.407Z,23.80
2016-08-17T13:23:26.652Z,23.83
2016-08-17T13:24:12.938Z,24.01
2016-08-17T13:25:12.952Z,24.23
2016-08-17T13:26:22.477Z,24.42
2016-08-17T13:27:12.217Z,24.53
2016-08-17T13:28:11.524Z,24.74
2016-08-17T13:29:12.855Z,24.80
2016-08-17T13:30:25.169Z,24.77
2016-08-17T13:31:12.011Z,24.91
2016-08-17T13:32:12.456Z,25.13
2016-08-17T13:33:25.173Z,25.17
2016-08-17T13:34:26.447Z,25.31
2016-08-17T13:35:25.728Z,25.29
2016-08-17T13:36:12.298Z,25.20
2016-08-17T13:37:23.457Z,24.81
2016-08-17T13:38:26.168Z,24.98
2016-08-17T13:39:20.530Z,24.96
2016-08-17T13:40:27.863Z,25.05
2016-08-17T13:41:19.035Z,25.13
2016-08-17T13:42:26.311Z,25.05
2016-08-17T13:43:13.428Z,25.00
2016-08-17T13:45:20.154Z,25.05
2016-08-17T13:51:20.521Z,25.60
2016-08-17T13:52:26.863Z,25.60
2016-08-17T13:53:19.561Z,25.78
2016-08-17T13:55:20.438Z,26.22
2016-08-17T13:56:22.792Z,26.30
2016-08-17T13:58:22.787Z,25.95
2016-08-17T13:59:12.763Z,25.82
2016-08-17T14:01:12.947Z,25.37
2016-08-17T14:02:20.231Z,24.99
2016-08-17T14:04:32.200Z,24.38
2016-08-17T14:05:13.493Z,24.10
2016-08-17T14:07:23.456Z,23.72
2016-08-17T14:09:20.260Z,24.02
2016-08-17T14:10:20.496Z,24.10
2016-08-17T14:11:11.432Z,24.30
2016-08-17T14:12:12.656Z,24.31
2016-08-17T14:13:19.990Z,23.97
2016-08-17T14:15:21.878Z,24.21
2016-08-17T14:17:25.920Z,24.51
2016-08-17T14:18:13.178Z,24.47
2016-08-17T14:19:18.348Z,24.40
2016-08-17T14:20:20.557Z,24.43
2016-08-17T14:21:11.356Z,24.42
2016-08-17T14:22:15.490Z,24.42
2016-08-17T14:23:22.688Z,24.44
2016-08-17T14:24:26.051Z,24.39
2016-08-17T14:25:23.510Z,24.34
2016-08-17T14:26:11.702Z,24.25
2016-08-17T14:27:18.866Z,23.77
2016-08-17T14:28:23.060Z,23.77
2016-08-17T14:29:28.759Z,23.88
2016-08-17T14:30:25.461Z,23.83
2016-08-17T14:31:18.879Z,23.86
2016-08-17T14:32:23.469Z,23.87
2016-08-17T14:33:19.900Z,23.82
2016-08-17T14:34:20.186Z,23.67
2016-08-17T14:35:25.429Z,23.74
2016-08-17T14:36:22.029Z,23.79
2016-08-17T14:38:20.627Z,23.77
2016-08-17T14:39:12.565Z,23.78
2016-08-17T14:40:19.110Z,23.83
2016-08-17T14:41:28.460Z,23.87
2016-08-17T14:42:12.580Z,23.99
2016-08-17T14:43:12.629Z,23.98
2016-08-17T14:44:21.976Z,24.04
2016-08-17T14:45:13.843Z,23.89
2016-08-17T14:46:11.757Z,23.91
2016-08-17T14:47:24.747Z,23.97
2016-08-17T14:48:19.481Z,24.00
2016-08-17T14:49:11.744Z,23.96
2016-08-17T14:50:12.228Z,23.94
2016-08-17T14:51:28.395Z,23.85
2016-08-17T14:52:13.554Z,23.87